sensor_id;sensor_type;location;lat;lon;timestamp;P1;durP1;ratioP1;P2;durP2;ratioP2
70558;SDS011;58108;48.094;11.838;2023-11-18T00:00:31;5.70;;;2.13;;
70558;SDS011;58108;48.094;11.838;2023-11-18T00:02:57;8.05;;;2.88;;
70558;SDS011;58108;48.094;11.838;2023-11-18T00:05:23;8.80;;;2.67;;
70558;SDS011;58108;48.094;11.838;2023-11-18T00:07:49;5.63;;;2.10;;
70558;SDS011;58108;48.094;11.838;2023-11-18T00:10:15;9.32;;;3.10;;
70558;SDS011;58108;48.094;11.838;2023-11-18T00:12:41;5.73;;;2.33;;
70558;SDS011;58108;48.094;11.838;2023-11-18T00:15:07;8.68;;;3.22;;
70558;SDS011;58108;48.094;11.838;2023-11-18T00:17:35;7.43;;;2.95;;
70558;SDS011;58108;48.094;11.838;2023-11-18T00:20:01;7.13;;;2.43;;
70558;SDS011;58108;48.094;11.838;2023-11-18T00:22:37;9.90;;;3.88;;
70558;SDS011;58108;48.094;11.838;2023-11-18T00:25:03;7.82;;;2.15;;
70558;SDS011;58108;48.094;11.838;2023-11-18T00:27:36;9.80;;;3.67;;
70558;SDS011;58108;48.094;11.838;2023-11-18T00:30:02;10.10;;;3.80;;
70558;SDS011;58108;48.094;11.838;2023-11-18T00:32:31;8.93;;;3.30;;
70558;SDS011;58108;48.094;11.838;2023-11-18T00:34:57;11.52;;;4.15;;
70558;SDS011;58108;48.094;11.838;2023-11-18T00:37:23;10.95;;;4.30;;
70558;SDS011;58108;48.094;11.838;2023-11-18T00:39:48;10.50;;;3.80;;
70558;SDS011;58108;48.094;11.838;2023-11-18T00:42:14;7.45;;;2.63;;
70558;SDS011;58108;48.094;11.838;2023-11-18T00:44:40;13.88;;;4.82;;
70558;SDS011;58108;48.094;11.838;2023-11-18T00:47:06;6.27;;;2.30;;
70558;SDS011;58108;48.094;11.838;2023-11-18T00:49:31;11.00;;;4.27;;
70558;SDS011;58108;48.094;11.838;2023-11-18T00:51:59;8.80;;;3.90;;
70558;SDS011;58108;48.094;11.838;2023-11-18T00:54:25;7.27;;;3.20;;
70558;SDS011;58108;48.094;11.838;2023-11-18T00:56:50;10.40;;;3.88;;
70558;SDS011;58108;48.094;11.838;2023-11-18T00:59:16;10.40;;;3.77;;
70558;SDS011;58108;48.094;11.838;2023-11-18T01:01:41;10.47;;;3.80;;
70558;SDS011;58108;48.094;11.838;2023-11-18T01:04:07;8.02;;;3.03;;
70558;SDS011;58108;48.094;11.838;2023-11-18T01:06:34;7.78;;;3.08;;
70558;SDS011;58108;48.094;11.838;2023-11-18T01:09:00;3.43;;;1.27;;
70558;SDS011;58108;48.094;11.838;2023-11-18T01:11:26;7.68;;;2.35;;
70558;SDS011;58108;48.094;11.838;2023-11-18T01:13:51;9.93;;;4.87;;
70558;SDS011;58108;48.094;11.838;2023-11-18T01:16:20;8.00;;;3.33;;
70558;SDS011;58108;48.094;11.838;2023-11-18T01:18:45;7.35;;;3.13;;
70558;SDS011;58108;48.094;11.838;2023-11-18T01:21:11;10.27;;;3.90;;
70558;SDS011;58108;48.094;11.838;2023-11-18T01:23:37;4.88;;;1.73;;
70558;SDS011;58108;48.094;11.838;2023-11-18T01:26:04;10.30;;;3.33;;
70558;SDS011;58108;48.094;11.838;2023-11-18T01:28:31;9.30;;;3.70;;
70558;SDS011;58108;48.094;11.838;2023-11-18T01:31:02;7.22;;;2.75;;
70558;SDS011;58108;48.094;11.838;2023-11-18T01:33:29;9.02;;;3.03;;
70558;SDS011;58108;48.094;11.838;2023-11-18T01:35:55;8.05;;;3.25;;
70558;SDS011;58108;48.094;11.838;2023-11-18T01:38:20;7.60;;;2.87;;
70558;SDS011;58108;48.094;11.838;2023-11-18T01:40:46;8.77;;;3.03;;
70558;SDS011;58108;48.094;11.838;2023-11-18T01:43:12;5.85;;;2.30;;
70558;SDS011;58108;48.094;11.838;2023-11-18T01:45:42;4.40;;;1.63;;
70558;SDS011;58108;48.094;11.838;2023-11-18T01:48:09;7.70;;;2.90;;
70558;SDS011;58108;48.094;11.838;2023-11-18T01:50:39;6.97;;;2.42;;
70558;SDS011;58108;48.094;11.838;2023-11-18T01:53:07;6.65;;;2.38;;
70558;SDS011;58108;48.094;11.838;2023-11-18T01:55:35;7.85;;;2.92;;
70558;SDS011;58108;48.094;11.838;2023-11-18T01:58:01;6.88;;;2.45;;
70558;SDS011;58108;48.094;11.838;2023-11-18T02:00:39;4.05;;;1.70;;
70558;SDS011;58108;48.094;11.838;2023-11-18T02:03:07;5.97;;;2.20;;
70558;SDS011;58108;48.094;11.838;2023-11-18T02:05:34;8.27;;;2.53;;
70558;SDS011;58108;48.094;11.838;2023-11-18T02:08:01;6.37;;;2.57;;
70558;SDS011;58108;48.094;11.838;2023-11-18T02:11:20;4.32;;;1.27;;
70558;SDS011;58108;48.094;11.838;2023-11-18T02:13:34;5.88;;;2.10;;
70558;SDS011;58108;48.094;11.838;2023-11-18T02:16:02;5.95;;;2.10;;
70558;SDS011;58108;48.094;11.838;2023-11-18T02:18:29;6.00;;;1.88;;
70558;SDS011;58108;48.094;11.838;2023-11-18T02:20:58;5.87;;;1.97;;
70558;SDS011;58108;48.094;11.838;2023-11-18T02:23:25;4.63;;;1.60;;
70558;SDS011;58108;48.094;11.838;2023-11-18T02:25:54;2.50;;;0.82;;
70558;SDS011;58108;48.094;11.838;2023-11-18T02:28:23;3.90;;;1.50;;
70558;SDS011;58108;48.094;11.838;2023-11-18T02:30:50;4.60;;;1.40;;
70558;SDS011;58108;48.094;11.838;2023-11-18T02:33:18;4.80;;;1.45;;
70558;SDS011;58108;48.094;11.838;2023-11-18T02:38:49;4.25;;;1.48;;
70558;SDS011;58108;48.094;11.838;2023-11-18T02:41:16;3.83;;;1.02;;
70558;SDS011;58108;48.094;11.838;2023-11-18T02:43:45;2.60;;;0.73;;
70558;SDS011;58108;48.094;11.838;2023-11-18T02:46:12;4.15;;;1.30;;
70558;SDS011;58108;48.094;11.838;2023-11-18T02:48:39;3.78;;;1.20;;
70558;SDS011;58108;48.094;11.838;2023-11-18T02:51:06;2.70;;;0.73;;
70558;SDS011;58108;48.094;11.838;2023-11-18T02:53:33;4.70;;;1.73;;
70558;SDS011;58108;48.094;11.838;2023-11-18T02:55:59;4.70;;;1.47;;
70558;SDS011;58108;48.094;11.838;2023-11-18T02:58:31;3.45;;;1.25;;
70558;SDS011;58108;48.094;11.838;2023-11-18T03:00:58;4.80;;;1.60;;
70558;SDS011;58108;48.094;11.838;2023-11-18T03:03:25;5.22;;;1.83;;
70558;SDS011;58108;48.094;11.838;2023-11-18T03:05:51;4.43;;;1.67;;
70558;SDS011;58108;48.094;11.838;2023-11-18T03:08:16;4.07;;;1.00;;
70558;SDS011;58108;48.094;11.838;2023-11-18T03:10:42;5.60;;;1.53;;
70558;SDS011;58108;48.094;11.838;2023-11-18T03:13:09;2.63;;;0.80;;
70558;SDS011;58108;48.094;11.838;2023-11-18T03:15:37;5.57;;;1.63;;
70558;SDS011;58108;48.094;11.838;2023-11-18T03:18:04;5.03;;;1.47;;
70558;SDS011;58108;48.094;11.838;2023-11-18T03:20:31;5.30;;;1.30;;
70558;SDS011;58108;48.094;11.838;2023-11-18T03:22:59;3.65;;;1.40;;
70558;SDS011;58108;48.094;11.838;2023-11-18T03:25:27;3.38;;;1.30;;
70558;SDS011;58108;48.094;11.838;2023-11-18T03:27:52;4.40;;;1.70;;
70558;SDS011;58108;48.094;11.838;2023-11-18T03:30:20;4.13;;;1.70;;
70558;SDS011;58108;48.094;11.838;2023-11-18T03:32:46;3.75;;;1.38;;
70558;SDS011;58108;48.094;11.838;2023-11-18T03:35:11;5.70;;;1.60;;
70558;SDS011;58108;48.094;11.838;2023-11-18T03:37:37;4.43;;;1.50;;
70558;SDS011;58108;48.094;11.838;2023-11-18T03:40:10;3.30;;;1.17;;
70558;SDS011;58108;48.094;11.838;2023-11-18T03:42:38;4.60;;;1.52;;
70558;SDS011;58108;48.094;11.838;2023-11-18T03:45:05;3.72;;;1.13;;
70558;SDS011;58108;48.094;11.838;2023-11-18T03:47:31;3.45;;;0.90;;
70558;SDS011;58108;48.094;11.838;2023-11-18T03:49:57;4.43;;;1.73;;
70558;SDS011;58108;48.094;11.838;2023-11-18T03:52:23;3.83;;;1.15;;
70558;SDS011;58108;48.094;11.838;2023-11-18T03:54:49;3.10;;;0.87;;
70558;SDS011;58108;48.094;11.838;2023-11-18T03:57:15;4.13;;;1.27;;
70558;SDS011;58108;48.094;11.838;2023-11-18T03:59:40;4.33;;;1.37;;
70558;SDS011;58108;48.094;11.838;2023-11-18T04:02:06;3.38;;;0.95;;
70558;SDS011;58108;48.094;11.838;2023-11-18T04:04:32;1.97;;;0.60;;
70558;SDS011;58108;48.094;11.838;2023-11-18T04:06:58;5.28;;;1.50;;
70558;SDS011;58108;48.094;11.838;2023-11-18T04:09:26;4.20;;;1.40;;
70558;SDS011;58108;48.094;11.838;2023-11-18T04:11:52;2.33;;;0.90;;
70558;SDS011;58108;48.094;11.838;2023-11-18T04:14:18;4.60;;;1.40;;
70558;SDS011;58108;48.094;11.838;2023-11-18T04:16:47;4.00;;;1.38;;
70558;SDS011;58108;48.094;11.838;2023-11-18T04:19:14;5.00;;;1.63;;
70558;SDS011;58108;48.094;11.838;2023-11-18T04:21:39;5.03;;;1.40;;
70558;SDS011;58108;48.094;11.838;2023-11-18T04:24:05;6.03;;;1.60;;
70558;SDS011;58108;48.094;11.838;2023-11-18T04:26:32;5.18;;;1.50;;
70558;SDS011;58108;48.094;11.838;2023-11-18T04:28:57;2.75;;;0.90;;
70558;SDS011;58108;48.094;11.838;2023-11-18T04:31:24;6.43;;;1.27;;
70558;SDS011;58108;48.094;11.838;2023-11-18T04:33:50;4.17;;;1.40;;
70558;SDS011;58108;48.094;11.838;2023-11-18T04:36:15;5.60;;;1.90;;
70558;SDS011;58108;48.094;11.838;2023-11-18T04:38:42;4.30;;;1.20;;
70558;SDS011;58108;48.094;11.838;2023-11-18T04:41:08;3.80;;;1.20;;
70558;SDS011;58108;48.094;11.838;2023-11-18T04:43:36;4.28;;;1.67;;
70558;SDS011;58108;48.094;11.838;2023-11-18T04:46:01;3.75;;;1.13;;
70558;SDS011;58108;48.094;11.838;2023-11-18T04:48:27;4.27;;;1.70;;
70558;SDS011;58108;48.094;11.838;2023-11-18T04:50:52;3.20;;;0.80;;
70558;SDS011;58108;48.094;11.838;2023-11-18T04:53:18;4.55;;;1.33;;
70558;SDS011;58108;48.094;11.838;2023-11-18T04:55:43;4.40;;;1.57;;
70558;SDS011;58108;48.094;11.838;2023-11-18T04:58:10;6.07;;;2.00;;
70558;SDS011;58108;48.094;11.838;2023-11-18T05:00:38;5.57;;;1.87;;
70558;SDS011;58108;48.094;11.838;2023-11-18T05:03:04;4.53;;;1.65;;
70558;SDS011;58108;48.094;11.838;2023-11-18T05:05:37;4.13;;;1.50;;
70558;SDS011;58108;48.094;11.838;2023-11-18T05:08:03;5.80;;;1.73;;
70558;SDS011;58108;48.094;11.838;2023-11-18T05:10:36;4.45;;;1.48;;
70558;SDS011;58108;48.094;11.838;2023-11-18T05:13:03;5.28;;;1.95;;
70558;SDS011;58108;48.094;11.838;2023-11-18T05:15:28;4.93;;;1.80;;
70558;SDS011;58108;48.094;11.838;2023-11-18T05:17:55;5.70;;;1.73;;
70558;SDS011;58108;48.094;11.838;2023-11-18T05:20:21;4.37;;;1.53;;
70558;SDS011;58108;48.094;11.838;2023-11-18T05:22:47;5.57;;;2.40;;
70558;SDS011;58108;48.094;11.838;2023-11-18T05:25:13;4.90;;;1.60;;
70558;SDS011;58108;48.094;11.838;2023-11-18T05:27:39;6.90;;;2.10;;
70558;SDS011;58108;48.094;11.838;2023-11-18T05:30:09;5.05;;;1.58;;
70558;SDS011;58108;48.094;11.838;2023-11-18T05:32:36;6.10;;;1.90;;
70558;SDS011;58108;48.094;11.838;2023-11-18T05:35:03;5.78;;;1.90;;
70558;SDS011;58108;48.094;11.838;2023-11-18T05:37:30;5.93;;;1.80;;
70558;SDS011;58108;48.094;11.838;2023-11-18T05:40:00;4.53;;;1.40;;
70558;SDS011;58108;48.094;11.838;2023-11-18T05:42:34;5.57;;;2.00;;
70558;SDS011;58108;48.094;11.838;2023-11-18T05:45:06;5.25;;;1.73;;
70558;SDS011;58108;48.094;11.838;2023-11-18T05:47:33;7.18;;;1.92;;
70558;SDS011;58108;48.094;11.838;2023-11-18T05:49:59;6.53;;;2.30;;
70558;SDS011;58108;48.094;11.838;2023-11-18T05:52:25;4.85;;;1.40;;
70558;SDS011;58108;48.094;11.838;2023-11-18T05:54:50;6.40;;;1.97;;
70558;SDS011;58108;48.094;11.838;2023-11-18T05:57:16;6.80;;;2.05;;
70558;SDS011;58108;48.094;11.838;2023-11-18T05:59:42;6.33;;;2.10;;
70558;SDS011;58108;48.094;11.838;2023-11-18T06:02:08;6.35;;;2.13;;
70558;SDS011;58108;48.094;11.838;2023-11-18T06:04:38;7.70;;;2.55;;
70558;SDS011;58108;48.094;11.838;2023-11-18T06:07:03;7.20;;;2.33;;
70558;SDS011;58108;48.094;11.838;2023-11-18T06:09:30;7.65;;;2.45;;
70558;SDS011;58108;48.094;11.838;2023-11-18T06:11:55;6.93;;;2.30;;
70558;SDS011;58108;48.094;11.838;2023-11-18T06:14:21;6.90;;;2.40;;
70558;SDS011;58108;48.094;11.838;2023-11-18T06:16:47;6.93;;;2.53;;
70558;SDS011;58108;48.094;11.838;2023-11-18T06:19:13;7.63;;;2.55;;
70558;SDS011;58108;48.094;11.838;2023-11-18T06:21:40;6.10;;;2.35;;
70558;SDS011;58108;48.094;11.838;2023-11-18T06:24:06;6.72;;;2.20;;
70558;SDS011;58108;48.094;11.838;2023-11-18T06:26:32;5.67;;;2.00;;
70558;SDS011;58108;48.094;11.838;2023-11-18T06:29:01;5.80;;;1.95;;
70558;SDS011;58108;48.094;11.838;2023-11-18T06:31:26;6.55;;;2.03;;
70558;SDS011;58108;48.094;11.838;2023-11-18T06:33:54;6.07;;;2.03;;
70558;SDS011;58108;48.094;11.838;2023-11-18T06:36:20;5.93;;;2.00;;
70558;SDS011;58108;48.094;11.838;2023-11-18T06:38:47;6.68;;;1.90;;
70558;SDS011;58108;48.094;11.838;2023-11-18T06:41:17;5.80;;;2.13;;
70558;SDS011;58108;48.094;11.838;2023-11-18T06:43:44;5.47;;;2.13;;
70558;SDS011;58108;48.094;11.838;2023-11-18T06:46:20;6.07;;;2.40;;
70558;SDS011;58108;48.094;11.838;2023-11-18T06:48:58;6.28;;;1.95;;
70558;SDS011;58108;48.094;11.838;2023-11-18T06:51:29;5.82;;;1.90;;
70558;SDS011;58108;48.094;11.838;2023-11-18T06:53:57;5.80;;;1.97;;
70558;SDS011;58108;48.094;11.838;2023-11-18T06:56:23;6.47;;;2.10;;
70558;SDS011;58108;48.094;11.838;2023-11-18T06:58:49;2.45;;;0.80;;
70558;SDS011;58108;48.094;11.838;2023-11-18T07:01:15;5.13;;;1.98;;
70558;SDS011;58108;48.094;11.838;2023-11-18T07:03:42;5.25;;;1.92;;
70558;SDS011;58108;48.094;11.838;2023-11-18T07:06:08;6.03;;;2.07;;
70558;SDS011;58108;48.094;11.838;2023-11-18T07:08:35;6.60;;;2.42;;
70558;SDS011;58108;48.094;11.838;2023-11-18T07:11:01;5.60;;;2.15;;
70558;SDS011;58108;48.094;11.838;2023-11-18T07:13:28;5.32;;;1.90;;
70558;SDS011;58108;48.094;11.838;2023-11-18T07:15:55;4.97;;;1.38;;
70558;SDS011;58108;48.094;11.838;2023-11-18T07:18:25;7.33;;;2.03;;
70558;SDS011;58108;48.094;11.838;2023-11-18T07:20:51;5.72;;;1.95;;
70558;SDS011;58108;48.094;11.838;2023-11-18T07:23:18;6.68;;;1.88;;
70558;SDS011;58108;48.094;11.838;2023-11-18T07:25:44;5.07;;;1.50;;
70558;SDS011;58108;48.094;11.838;2023-11-18T07:28:11;5.70;;;1.98;;
70558;SDS011;58108;48.094;11.838;2023-11-18T07:30:37;5.23;;;1.63;;
70558;SDS011;58108;48.094;11.838;2023-11-18T07:33:03;4.05;;;1.00;;
70558;SDS011;58108;48.094;11.838;2023-11-18T07:35:28;6.20;;;1.95;;
70558;SDS011;58108;48.094;11.838;2023-11-18T07:37:55;7.10;;;2.20;;
70558;SDS011;58108;48.094;11.838;2023-11-18T07:40:22;5.90;;;1.90;;
70558;SDS011;58108;48.094;11.838;2023-11-18T07:42:56;7.18;;;2.08;;
70558;SDS011;58108;48.094;11.838;2023-11-18T07:45:22;6.57;;;2.10;;
70558;SDS011;58108;48.094;11.838;2023-11-18T07:47:51;5.28;;;2.00;;
70558;SDS011;58108;48.094;11.838;2023-11-18T07:50:18;6.03;;;1.83;;
70558;SDS011;58108;48.094;11.838;2023-11-18T07:52:46;6.18;;;1.52;;
70558;SDS011;58108;48.094;11.838;2023-11-18T07:55:15;5.55;;;1.73;;
70558;SDS011;58108;48.094;11.838;2023-11-18T07:57:42;7.20;;;2.25;;
70558;SDS011;58108;48.094;11.838;2023-11-18T08:00:08;4.95;;;1.48;;
70558;SDS011;58108;48.094;11.838;2023-11-18T08:02:38;6.00;;;2.00;;
70558;SDS011;58108;48.094;11.838;2023-11-18T08:05:04;6.50;;;2.00;;
70558;SDS011;58108;48.094;11.838;2023-11-18T08:07:35;6.65;;;2.00;;
70558;SDS011;58108;48.094;11.838;2023-11-18T08:10:02;7.33;;;2.07;;
70558;SDS011;58108;48.094;11.838;2023-11-18T08:12:31;4.18;;;1.20;;
70558;SDS011;58108;48.094;11.838;2023-11-18T08:14:57;6.88;;;1.60;;
70558;SDS011;58108;48.094;11.838;2023-11-18T08:17:24;4.85;;;1.83;;
70558;SDS011;58108;48.094;11.838;2023-11-18T08:19:53;5.32;;;2.00;;
70558;SDS011;58108;48.094;11.838;2023-11-18T08:22:18;5.60;;;1.90;;
70558;SDS011;58108;48.094;11.838;2023-11-18T08:24:44;5.97;;;1.63;;
70558;SDS011;58108;48.094;11.838;2023-11-18T08:27:11;7.10;;;1.97;;
70558;SDS011;58108;48.094;11.838;2023-11-18T08:29:37;6.00;;;2.13;;
70558;SDS011;58108;48.094;11.838;2023-11-18T08:32:04;5.00;;;2.00;;
70558;SDS011;58108;48.094;11.838;2023-11-18T08:34:31;5.28;;;1.98;;
70558;SDS011;58108;48.094;11.838;2023-11-18T08:36:59;2.90;;;1.17;;
70558;SDS011;58108;48.094;11.838;2023-11-18T08:39:25;4.57;;;1.50;;
70558;SDS011;58108;48.094;11.838;2023-11-18T08:41:51;4.53;;;1.75;;
70558;SDS011;58108;48.094;11.838;2023-11-18T08:44:17;6.00;;;2.20;;
70558;SDS011;58108;48.094;11.838;2023-11-18T08:46:43;5.25;;;1.77;;
70558;SDS011;58108;48.094;11.838;2023-11-18T08:49:09;5.93;;;2.13;;
70558;SDS011;58108;48.094;11.838;2023-11-18T08:51:38;5.87;;;2.03;;
70558;SDS011;58108;48.094;11.838;2023-11-18T08:54:07;6.57;;;2.10;;
70558;SDS011;58108;48.094;11.838;2023-11-18T08:56:51;5.25;;;1.80;;
70558;SDS011;58108;48.094;11.838;2023-11-18T08:59:20;5.10;;;1.63;;
70558;SDS011;58108;48.094;11.838;2023-11-18T09:01:52;4.22;;;1.70;;
70558;SDS011;58108;48.094;11.838;2023-11-18T09:04:24;4.70;;;1.57;;
70558;SDS011;58108;48.094;11.838;2023-11-18T09:06:53;5.07;;;1.88;;
70558;SDS011;58108;48.094;11.838;2023-11-18T09:09:23;3.15;;;1.38;;
70558;SDS011;58108;48.094;11.838;2023-11-18T09:11:54;4.93;;;1.55;;
70558;SDS011;58108;48.094;11.838;2023-11-18T09:14:25;4.90;;;1.90;;
70558;SDS011;58108;48.094;11.838;2023-11-18T09:16:51;4.90;;;1.33;;
70558;SDS011;58108;48.094;11.838;2023-11-18T09:19:20;5.00;;;1.70;;
70558;SDS011;58108;48.094;11.838;2023-11-18T09:21:46;4.57;;;1.40;;
70558;SDS011;58108;48.094;11.838;2023-11-18T09:24:12;4.00;;;1.00;;
70558;SDS011;58108;48.094;11.838;2023-11-18T09:26:39;4.90;;;1.58;;
70558;SDS011;58108;48.094;11.838;2023-11-18T09:29:06;3.80;;;1.47;;
70558;SDS011;58108;48.094;11.838;2023-11-18T09:31:36;4.90;;;1.77;;
70558;SDS011;58108;48.094;11.838;2023-11-18T09:34:02;4.63;;;1.70;;
70558;SDS011;58108;48.094;11.838;2023-11-18T09:36:32;6.53;;;2.00;;
70558;SDS011;58108;48.094;11.838;2023-11-18T09:38:59;3.95;;;1.30;;
70558;SDS011;58108;48.094;11.838;2023-11-18T09:41:25;4.80;;;1.50;;
70558;SDS011;58108;48.094;11.838;2023-11-18T09:43:52;3.60;;;1.17;;
70558;SDS011;58108;48.094;11.838;2023-11-18T09:46:22;4.30;;;1.25;;
70558;SDS011;58108;48.094;11.838;2023-11-18T09:48:49;4.25;;;1.05;;
70558;SDS011;58108;48.094;11.838;2023-11-18T09:51:28;4.03;;;1.30;;
70558;SDS011;58108;48.094;11.838;2023-11-18T09:53:58;3.77;;;1.43;;
70558;SDS011;58108;48.094;11.838;2023-11-18T10:02:10;3.70;;;1.40;;
70558;SDS011;58108;48.094;11.838;2023-11-18T10:04:36;3.00;;;0.65;;
70558;SDS011;58108;48.094;11.838;2023-11-18T10:07:05;4.63;;;0.63;;
70558;SDS011;58108;48.094;11.838;2023-11-18T10:09:32;4.10;;;1.98;;
70558;SDS011;58108;48.094;11.838;2023-11-18T10:12:05;4.53;;;1.95;;
70558;SDS011;58108;48.094;11.838;2023-11-18T10:14:36;4.40;;;1.40;;
70558;SDS011;58108;48.094;11.838;2023-11-18T10:17:05;2.53;;;0.90;;
70558;SDS011;58108;48.094;11.838;2023-11-18T10:19:50;2.97;;;0.90;;
70558;SDS011;58108;48.094;11.838;2023-11-18T10:22:23;2.38;;;0.70;;
70558;SDS011;58108;48.094;11.838;2023-11-18T10:24:54;3.33;;;1.10;;
70558;SDS011;58108;48.094;11.838;2023-11-18T10:27:23;3.05;;;1.00;;
70558;SDS011;58108;48.094;11.838;2023-11-18T10:29:50;4.38;;;1.15;;
70558;SDS011;58108;48.094;11.838;2023-11-18T10:32:21;4.77;;;1.30;;
70558;SDS011;58108;48.094;11.838;2023-11-18T10:34:48;2.85;;;0.75;;
70558;SDS011;58108;48.094;11.838;2023-11-18T10:37:16;4.68;;;2.00;;
70558;SDS011;58108;48.094;11.838;2023-11-18T10:39:46;3.53;;;0.80;;
70558;SDS011;58108;48.094;11.838;2023-11-18T10:42:16;3.30;;;0.70;;
70558;SDS011;58108;48.094;11.838;2023-11-18T10:44:56;2.50;;;0.75;;
70558;SDS011;58108;48.094;11.838;2023-11-18T10:47:28;2.30;;;0.60;;
70558;SDS011;58108;48.094;11.838;2023-11-18T10:49:57;2.40;;;0.57;;
70558;SDS011;58108;48.094;11.838;2023-11-18T10:52:24;4.28;;;0.60;;
70558;SDS011;58108;48.094;11.838;2023-11-18T10:55:00;2.40;;;0.80;;
70558;SDS011;58108;48.094;11.838;2023-11-18T10:57:32;2.50;;;0.68;;
70558;SDS011;58108;48.094;11.838;2023-11-18T11:00:01;2.28;;;0.70;;
70558;SDS011;58108;48.094;11.838;2023-11-18T11:02:32;2.85;;;0.85;;
70558;SDS011;58108;48.094;11.838;2023-11-18T11:05:05;1.92;;;0.40;;
70558;SDS011;58108;48.094;11.838;2023-11-18T11:07:32;1.30;;;0.40;;
70558;SDS011;58108;48.094;11.838;2023-11-18T11:09:59;2.20;;;0.40;;
70558;SDS011;58108;48.094;11.838;2023-11-18T11:12:29;2.10;;;0.60;;
70558;SDS011;58108;48.094;11.838;2023-11-18T11:15:01;1.35;;;0.45;;
70558;SDS011;58108;48.094;11.838;2023-11-18T11:17:39;1.33;;;0.30;;
70558;SDS011;58108;48.094;11.838;2023-11-18T11:20:12;1.10;;;0.10;;
70558;SDS011;58108;48.094;11.838;2023-11-18T11:28:22;1.42;;;0.20;;
70558;SDS011;58108;48.094;11.838;2023-11-18T11:30:58;1.42;;;0.35;;
70558;SDS011;58108;48.094;11.838;2023-11-18T11:33:43;1.80;;;0.30;;
70558;SDS011;58108;48.094;11.838;2023-11-18T11:36:12;1.40;;;0.20;;
70558;SDS011;58108;48.094;11.838;2023-11-18T11:38:43;1.90;;;0.20;;
70558;SDS011;58108;48.094;11.838;2023-11-18T11:41:12;1.08;;;0.20;;
70558;SDS011;58108;48.094;11.838;2023-11-18T11:43:50;2.67;;;0.20;;
70558;SDS011;58108;48.094;11.838;2023-11-18T11:46:16;1.17;;;0.13;;
70558;SDS011;58108;48.094;11.838;2023-11-18T11:48:49;2.38;;;0.20;;
70558;SDS011;58108;48.094;11.838;2023-11-18T11:51:20;2.22;;;0.20;;
70558;SDS011;58108;48.094;11.838;2023-11-18T11:53:54;2.47;;;0.50;;
70558;SDS011;58108;48.094;11.838;2023-11-18T11:56:42;2.03;;;0.30;;
70558;SDS011;58108;48.094;11.838;2023-11-18T11:59:09;1.60;;;0.20;;
70558;SDS011;58108;48.094;11.838;2023-11-18T12:01:36;1.85;;;0.30;;
70558;SDS011;58108;48.094;11.838;2023-11-18T12:04:03;2.20;;;0.20;;
70558;SDS011;58108;48.094;11.838;2023-11-18T12:06:46;1.45;;;0.30;;
70558;SDS011;58108;48.094;11.838;2023-11-18T12:09:19;1.88;;;0.30;;
70558;SDS011;58108;48.094;11.838;2023-11-18T12:11:47;1.40;;;0.20;;
70558;SDS011;58108;48.094;11.838;2023-11-18T12:14:16;2.47;;;0.50;;
70558;SDS011;58108;48.094;11.838;2023-11-18T12:16:58;2.83;;;0.40;;
70558;SDS011;58108;48.094;11.838;2023-11-18T12:19:36;2.15;;;0.43;;
70558;SDS011;58108;48.094;11.838;2023-11-18T12:22:15;3.00;;;0.57;;
70558;SDS011;58108;48.094;11.838;2023-11-18T12:33:03;1.90;;;0.40;;
70558;SDS011;58108;48.094;11.838;2023-11-18T12:41:28;2.38;;;0.35;;
70558;SDS011;58108;48.094;11.838;2023-11-18T12:44:16;3.28;;;0.85;;
70558;SDS011;58108;48.094;11.838;2023-11-18T12:49:20;4.28;;;0.95;;
70558;SDS011;58108;48.094;11.838;2023-11-18T12:51:54;2.20;;;0.50;;
70558;SDS011;58108;48.094;11.838;2023-11-18T12:54:25;2.28;;;0.50;;
70558;SDS011;58108;48.094;11.838;2023-11-18T12:56:55;2.03;;;0.60;;
70558;SDS011;58108;48.094;11.838;2023-11-18T12:59:21;1.80;;;0.40;;
70558;SDS011;58108;48.094;11.838;2023-11-18T13:01:47;1.97;;;0.30;;
70558;SDS011;58108;48.094;11.838;2023-11-18T13:04:22;1.92;;;0.22;;
70558;SDS011;58108;48.094;11.838;2023-11-18T13:06:49;2.40;;;0.32;;
70558;SDS011;58108;48.094;11.838;2023-11-18T13:09:17;1.58;;;0.30;;
70558;SDS011;58108;48.094;11.838;2023-11-18T13:11:53;1.58;;;0.40;;
70558;SDS011;58108;48.094;11.838;2023-11-18T13:14:23;1.43;;;0.30;;
70558;SDS011;58108;48.094;11.838;2023-11-18T13:16:55;2.08;;;0.50;;
70558;SDS011;58108;48.094;11.838;2023-11-18T13:19:25;3.45;;;0.40;;
70558;SDS011;58108;48.094;11.838;2023-11-18T13:22:12;3.03;;;0.30;;
70558;SDS011;58108;48.094;11.838;2023-11-18T13:24:40;2.13;;;0.20;;
70558;SDS011;58108;48.094;11.838;2023-11-18T13:27:09;1.90;;;0.40;;
70558;SDS011;58108;48.094;11.838;2023-11-18T13:29:35;2.25;;;0.30;;
70558;SDS011;58108;48.094;11.838;2023-11-18T13:32:04;2.78;;;0.30;;
70558;SDS011;58108;48.094;11.838;2023-11-18T13:34:35;1.55;;;0.30;;
70558;SDS011;58108;48.094;11.838;2023-11-18T13:37:08;1.77;;;0.30;;
70558;SDS011;58108;48.094;11.838;2023-11-18T13:39:36;1.93;;;0.27;;
70558;SDS011;58108;48.094;11.838;2023-11-18T13:42:19;0.75;;;0.10;;
70558;SDS011;58108;48.094;11.838;2023-11-18T13:44:53;2.05;;;0.30;;
70558;SDS011;58108;48.094;11.838;2023-11-18T13:47:26;4.35;;;0.28;;
70558;SDS011;58108;48.094;11.838;2023-11-18T13:49:57;2.15;;;0.40;;
70558;SDS011;58108;48.094;11.838;2023-11-18T13:52:23;1.47;;;0.30;;
70558;SDS011;58108;48.094;11.838;2023-11-18T13:54:51;1.77;;;0.30;;
70558;SDS011;58108;48.094;11.838;2023-11-18T13:57:22;3.72;;;0.70;;
70558;SDS011;58108;48.094;11.838;2023-11-18T13:59:49;3.58;;;0.80;;
70558;SDS011;58108;48.094;11.838;2023-11-18T14:02:15;3.97;;;0.63;;
70558;SDS011;58108;48.094;11.838;2023-11-18T14:04:41;2.77;;;0.50;;
70558;SDS011;58108;48.094;11.838;2023-11-18T14:07:13;2.88;;;0.45;;
70558;SDS011;58108;48.094;11.838;2023-11-18T14:09:41;3.25;;;0.60;;
70558;SDS011;58108;48.094;11.838;2023-11-18T14:12:07;3.27;;;0.50;;
70558;SDS011;58108;48.094;11.838;2023-11-18T14:14:33;5.00;;;0.82;;
70558;SDS011;58108;48.094;11.838;2023-11-18T14:16:59;2.60;;;0.60;;
70558;SDS011;58108;48.094;11.838;2023-11-18T14:19:25;2.23;;;0.40;;
70558;SDS011;58108;48.094;11.838;2023-11-18T14:21:51;2.67;;;0.50;;
70558;SDS011;58108;48.094;11.838;2023-11-18T14:24:17;2.72;;;0.40;;
70558;SDS011;58108;48.094;11.838;2023-11-18T14:26:46;2.13;;;0.50;;
70558;SDS011;58108;48.094;11.838;2023-11-18T14:29:11;2.67;;;0.50;;
70558;SDS011;58108;48.094;11.838;2023-11-18T14:31:38;2.47;;;0.40;;
70558;SDS011;58108;48.094;11.838;2023-11-18T14:34:04;2.55;;;0.45;;
70558;SDS011;58108;48.094;11.838;2023-11-18T14:36:30;5.63;;;0.57;;
70558;SDS011;58108;48.094;11.838;2023-11-18T14:38:56;2.80;;;0.50;;
70558;SDS011;58108;48.094;11.838;2023-11-18T14:41:23;2.22;;;0.40;;
70558;SDS011;58108;48.094;11.838;2023-11-18T14:43:52;3.75;;;0.50;;
70558;SDS011;58108;48.094;11.838;2023-11-18T14:46:18;2.33;;;0.40;;
70558;SDS011;58108;48.094;11.838;2023-11-18T14:48:44;2.67;;;0.52;;
70558;SDS011;58108;48.094;11.838;2023-11-18T14:51:10;2.13;;;0.47;;
70558;SDS011;58108;48.094;11.838;2023-11-18T14:53:36;2.17;;;0.55;;
70558;SDS011;58108;48.094;11.838;2023-11-18T14:56:03;2.47;;;0.50;;
70558;SDS011;58108;48.094;11.838;2023-11-18T14:58:31;2.05;;;0.45;;
70558;SDS011;58108;48.094;11.838;2023-11-18T15:01:01;2.20;;;0.40;;
70558;SDS011;58108;48.094;11.838;2023-11-18T15:03:27;1.87;;;0.40;;
70558;SDS011;58108;48.094;11.838;2023-11-18T15:05:52;2.88;;;0.55;;
70558;SDS011;58108;48.094;11.838;2023-11-18T15:08:18;2.65;;;0.52;;
70558;SDS011;58108;48.094;11.838;2023-11-18T15:10:44;1.70;;;0.35;;